Time;durP1;ratioP1;P1;durP2;ratioP2;P2;SDS_P1;SDS_P2;PMS_P1;PMS_P2;Temp;Humidity;BMP_temperature;BMP_pressure;BME280_temperature;BME280_humidity;BME280_pressure;Samples;Min_cycle;Max_cycle;Signal;HPM_P1;HPM_P2
2023/08/31 00:02:15;;;;;;;1.4;1.3;;;;;;;12.75;99.14063;933.2283;;;;
2023/08/31 00:04:40;;;;;;;4.5;1.6;;;;;;;12.64;98.89844;933.185;;;;
2023/08/31 00:07:08;;;;;;;3.4;2.1;;;;;;;12.76;99.11035;933.2241;;;;
2023/08/31 00:09:33;;;;;;;1.9;1.8;;;;;;;12.84;98.45215;933.2463;;;;
2023/08/31 00:11:58;;;;;;;2.2;1.7;;;;;;;12.92;98.14648;933.2584;;;;
2023/08/31 00:14:23;;;;;;;2.8;1.5;;;;;;;12.88;97.97559;933.1884;;;;
2023/08/31 00:16:51;;;;;;;1.9;1.7;;;;;;;12.69;98.75;933.2534;;;;
2023/08/31 00:19:16;;;;;;;1.8;1.6;;;;;;;12.77;99.28516;933.236;;;;
2023/08/31 00:21:41;;;;;;;1.9;1.6;;;;;;;12.71;99.15527;933.1781;;;;
2023/08/31 00:24:07;;;;;;;2.1;1.6;;;;;;;12.49;100;933.2848;;;;
2023/08/31 00:26:33;;;;;;;1.9;1.7;;;;;;;12.58;100;933.289;;;;
2023/08/31 00:28:58;;;;;;;1.6;1.5;;;;;;;12.73;100;933.3602;;;;
2023/08/31 00:31:23;;;;;;;3;1.7;;;;;;;12.75;99.41895;933.3176;;;;
2023/08/31 00:33:48;;;;;;;1.9;1.6;;;;;;;12.72;99.93848;933.29;;;;
2023/08/31 00:36:16;;;;;;;1.7;1.6;;;;;;;12.85;99.31543;933.2271;;;;
2023/08/31 00:38:41;;;;;;;3.7;1.6;;;;;;;12.85;99.00293;933.239;;;;
2023/08/31 00:41:06;;;;;;;1.5;1.4;;;;;;;12.88;99.50293;933.2059;;;;
2023/08/31 00:43:31;;;;;;;2.4;1.8;;;;;;;12.77;99.22754;933.2329;;;;
2023/08/31 00:46:01;;;;;;;1.9;1.4;;;;;;;12.92;98.83594;933.2672;;;;
2023/08/31 00:48:23;;;;;;;2.1;1.6;;;;;;;13.01;98.5918;933.2394;;;;
2023/08/31 00:50:51;;;;;;;1.6;1.5;;;;;;;13.04;97.59961;933.2874;;;;
2023/08/31 00:53:16;;;;;;;1.5;1.4;;;;;;;12.94;97.88867;933.3269;;;;
2023/08/31 00:55:42;;;;;;;1.9;1.3;;;;;;;12.96;98.10938;933.2557;;;;
2023/08/31 00:58:07;;;;;;;1.6;1.3;;;;;;;12.99;98.20898;933.361;;;;
2023/08/31 01:00:33;;;;;;;4.2;1.7;;;;;;;13.07;97.15918;933.3318;;;;
2023/08/31 01:02:58;;;;;;;1.5;1.4;;;;;;;13.07;96.32324;933.295;;;;
2023/08/31 01:05:23;;;;;;;2.8;2;;;;;;;13.15;95.70703;933.3351;;;;
2023/08/31 01:07:52;;;;;;;2.7;1.8;;;;;;;13.16;95.60352;933.3719;;;;
2023/08/31 01:10:19;;;;;;;5.3;3.6;;;;;;;13.13;95.07129;933.3585;;;;
2023/08/31 01:12:44;;;;;;;4.3;3;;;;;;;13.13;94.93359;933.3705;;;;
2023/08/31 01:15:09;;;;;;;3;2.4;;;;;;;13.13;94.91113;933.2842;;;;
2023/08/31 01:17:42;;;;;;;1.9;1.7;;;;;;;13.05;95.64941;933.4;;;;
2023/08/31 01:20:13;;;;;;;2.1;1.5;;;;;;;12.98;95.93359;933.3418;;;;
2023/08/31 01:22:37;;;;;;;2.9;1.7;;;;;;;12.82;96.97656;933.3734;;;;
2023/08/31 01:25:04;;;;;;;1.6;1.4;;;;;;;12.85;96.83398;933.3796;;;;
2023/08/31 01:27:27;;;;;;;1.5;1.4;;;;;;;12.88;95.53125;933.4097;;;;
2023/08/31 01:29:54;;;;;;;2.6;1.3;;;;;;;12.88;94.80762;933.4089;;;;
2023/08/31 01:32:18;;;;;;;1.8;1.4;;;;;;;12.84;94.49023;933.3797;;;;
2023/08/31 01:34:45;;;;;;;1.7;1.6;;;;;;;12.69;95.39941;933.3787;;;;
2023/08/31 01:37:10;;;;;;;2.5;1.8;;;;;;;12.61;95.92285;933.4073;;;;
2023/08/31 01:39:38;;;;;;;2.6;1.5;;;;;;;12.59;95.42383;933.399;;;;
2023/08/31 01:42:00;;;;;;;1.9;1.5;;;;;;;12.55;96.84766;933.4617;;;;
2023/08/31 01:44:25;;;;;;;2.5;1.7;;;;;;;12.47;98.04492;933.526;;;;
2023/08/31 01:46:52;;;;;;;1.5;1.4;;;;;;;12.32;99.4209;933.5066;;;;
2023/08/31 01:49:17;;;;;;;1.7;1.6;;;;;;;12.38;99.49219;933.4233;;;;
2023/08/31 01:51:43;;;;;;;1.6;1.5;;;;;;;12.22;100;933.452;;;;
2023/08/31 01:54:08;;;;;;;2.3;1.8;;;;;;;12.33;99.37891;933.5112;;;;
2023/08/31 01:56:34;;;;;;;3.1;1.6;;;;;;;12.41;98.65234;933.6035;;;;
2023/08/31 01:58:59;;;;;;;2.1;1.5;;;;;;;12.42;98.44727;933.5295;;;;
2023/08/31 02:01:26;;;;;;;3.1;1.8;;;;;;;12.5;97.82129;933.5402;;;;
2023/08/31 02:03:51;;;;;;;3.3;1.5;;;;;;;12.59;97.35059;933.57;;;;
2023/08/31 02:06:17;;;;;;;1.9;1.5;;;;;;;12.64;96.86719;933.5158;;;;
2023/08/31 02:08:44;;;;;;;1.4;1.3;;;;;;;12.68;96.82031;933.5123;;;;
2023/08/31 02:11:10;;;;;;;2.4;1.5;;;;;;;12.74;96.86719;933.5614;;;;
2023/08/31 02:13:35;;;;;;;2.9;1.6;;;;;;;12.72;97.03711;933.6158;;;;
2023/08/31 02:16:00;;;;;;;1.5;1.3;;;;;;;12.73;97.24512;933.6997;;;;
2023/08/31 02:18:25;;;;;;;1.7;1.6;;;;;;;12.66;97.53906;933.6984;;;;
2023/08/31 02:20:52;;;;;;;1.4;1.3;;;;;;;12.64;97.43164;933.7497;;;;
2023/08/31 02:23:17;;;;;;;1.5;1.4;;;;;;;12.58;97.6582;933.745;;;;
2023/08/31 02:25:43;;;;;;;1.7;1.5;;;;;;;12.56;98.29688;933.7914;;;;
2023/08/31 02:28:09;;;;;;;2.1;1.6;;;;;;;12.56;98.06543;933.7963;;;;
2023/08/31 02:30:35;;;;;;;2.8;2.2;;;;;;;12.63;97.86328;933.8289;;;;
2023/08/31 02:33:00;;;;;;;3.4;2.4;;;;;;;12.55;97.8916;933.7723;;;;
2023/08/31 02:35:25;;;;;;;4.6;4.3;;;;;;;12.54;98.26953;933.8171;;;;
2023/08/31 02:37:51;;;;;;;3.4;3.1;;;;;;;12.33;99.27539;933.8298;;;;
2023/08/31 02:40:16;;;;;;;2.1;1.9;;;;;;;12.37;99.82227;933.7059;;;;
2023/08/31 02:42:42;;;;;;;2;1.8;;;;;;;12.51;99.47559;933.7134;;;;
2023/08/31 02:45:07;;;;;;;1.5;1.4;;;;;;;12.47;99.58203;933.7584;;;;
2023/08/31 02:47:35;;;;;;;1.8;1.5;;;;;;;12.2;100;933.7056;;;;
2023/08/31 02:50:00;;;;;;;1.6;1.4;;;;;;;12.24;100;933.7009;;;;
2023/08/31 02:52:29;;;;;;;2.4;1.5;;;;;;;12.45;100;933.7145;;;;
2023/08/31 02:54:57;;;;;;;2.7;1.8;;;;;;;12.62;99.2959;933.5861;;;;
2023/08/31 02:57:23;;;;;;;2;1.8;;;;;;;12.66;98.50293;933.6291;;;;
2023/08/31 02:59:50;;;;;;;1.9;1.5;;;;;;;12.72;98.04688;933.627;;;;
2023/08/31 03:02:14;;;;;;;2.8;1.8;;;;;;;12.69;98.57813;933.7;;;;
2023/08/31 03:04:40;;;;;;;2.2;1.5;;;;;;;12.57;99.74414;933.6859;;;;
2023/08/31 03:07:05;;;;;;;1.8;1.4;;;;;;;12.41;100;933.6869;;;;
2023/08/31 03:09:33;;;;;;;1.4;1.3;;;;;;;12.36;100;933.7139;;;;
2023/08/31 03:11:58;;;;;;;1.5;1.4;;;;;;;12.48;100;933.6953;;;;
2023/08/31 03:14:23;;;;;;;4.9;1.5;;;;;;;12.6;99.49609;933.6707;;;;
2023/08/31 03:16:48;;;;;;;5.3;1.5;;;;;;;12.69;98.76172;933.7415;;;;
2023/08/31 03:19:16;;;;;;;1.4;1.3;;;;;;;12.8;98.15527;933.7551;;;;
2023/08/31 03:21:41;;;;;;;1.9;1.5;;;;;;;12.83;97.62109;933.7561;;;;
2023/08/31 03:24:06;;;;;;;1.6;1.5;;;;;;;12.88;97.13965;933.7844;;;;
2023/08/31 03:26:33;;;;;;;2.9;2.2;;;;;;;12.88;96.41504;933.7845;;;;
2023/08/31 03:28:57;;;;;;;2.2;1.9;;;;;;;12.72;96.61035;933.782;;;;
2023/08/31 03:31:23;;;;;;;1.6;1.5;;;;;;;12.64;97.0625;933.7921;;;;
2023/08/31 03:33:50;;;;;;;2.9;1.7;;;;;;;12.62;97.24219;933.8361;;;;
2023/08/31 03:36:15;;;;;;;2.5;1.6;;;;;;;12.64;96.4541;933.8281;;;;
2023/08/31 03:38:43;;;;;;;2;1.9;;;;;;;12.62;96.01465;933.805;;;;
2023/08/31 03:41:08;;;;;;;1.9;1.5;;;;;;;12.55;96.15918;933.8155;;;;
2023/08/31 03:43:33;;;;;;;2.1;1.6;;;;;;;12.45;97.23828;933.8655;;;;
2023/08/31 03:45:58;;;;;;;2.7;1.6;;;;;;;12.28;98.91895;933.8732;;;;
2023/08/31 03:48:25;;;;;;;2.4;1.6;;;;;;;12.08;100;933.8833;;;;
2023/08/31 03:50:50;;;;;;;2.5;1.6;;;;;;;12.03;100;933.9089;;;;
2023/08/31 03:53:15;;;;;;;1.6;1.4;;;;;;;12.1;100;933.9486;;;;
2023/08/31 03:55:41;;;;;;;2.4;1.5;;;;;;;12.01;100;933.9968;;;;
2023/08/31 03:58:09;;;;;;;1.5;1.4;;;;;;;12.09;100;933.9822;;;;
2023/08/31 04:02:31;;;;;;;2.1;1.5;;;;;;;12.21;99.00781;934.0328;;;;
2023/08/31 04:04:54;;;;;;;1.7;1.4;;;;;;;12.18;98.72656;934.0609;;;;
2023/08/31 04:07:20;;;;;;;2;1.7;;;;;;;12.14;98.65918;934.1153;;;;
2023/08/31 04:09:46;;;;;;;1.6;1.5;;;;;;;12.18;98.24316;934.1127;;;;
2023/08/31 04:12:11;;;;;;;1.7;1.6;;;;;;;12.05;98.83301;934.2145;;;;
2023/08/31 04:14:36;;;;;;;2.4;1.6;;;;;;;12;99.46289;934.2575;;;;
2023/08/31 04:17:01;;;;;;;1.6;1.5;;;;;;;12.08;99.16211;934.2512;;;;
2023/08/31 04:19:28;;;;;;;1.7;1.6;;;;;;;11.77;99.85742;934.3116;;;;
2023/08/31 04:21:54;;;;;;;1.6;1.5;;;;;;;11.57;100;934.3283;;;;
2023/08/31 04:24:19;;;;;;;2.2;1.5;;;;;;;11.73;100;934.2096;;;;
2023/08/31 04:26:45;;;;;;;2.1;1.8;;;;;;;11.87;100;934.2371;;;;
2023/08/31 04:29:10;;;;;;;1.8;1.7;;;;;;;12.02;100;934.2944;;;;
2023/08/31 04:31:35;;;;;;;3.3;2.3;;;;;;;12.1;99.31543;934.3931;;;;
2023/08/31 04:34:02;;;;;;;4.4;2.6;;;;;;;12.13;98.26758;934.3452;;;;
2023/08/31 04:36:27;;;;;;;4.7;3.4;;;;;;;12.12;98.20801;934.3628;;;;
2023/08/31 04:38:54;;;;;;;5.2;3.7;;;;;;;12.17;97.8291;934.3618;;;;
2023/08/31 04:41:19;;;;;;;36;17.9;;;;;;;12.14;97.87988;934.3739;;;;
2023/08/31 04:43:47;;;;;;;40.4;20.5;;;;;;;12.15;97.46973;934.3164;;;;
2023/08/31 04:46:11;;;;;;;33.2;16.4;;;;;;;12.11;97.39258;934.2424;;;;
2023/08/31 04:48:39;;;;;;;15.3;7.8;;;;;;;12.11;97.09277;934.2296;;;;
2023/08/31 04:51:03;;;;;;;10.9;6;;;;;;;12.05;97.06738;934.1914;;;;
2023/08/31 04:53:27;;;;;;;4.1;3.4;;;;;;;11.77;99.58301;934.2446;;;;
2023/08/31 04:55:57;;;;;;;2.6;2.4;;;;;;;11.72;100;934.271;;;;
2023/08/31 04:58:22;;;;;;;3.4;1.9;;;;;;;11.83;99.73438;934.3568;;;;
2023/08/31 05:00:51;;;;;;;2.5;1.7;;;;;;;11.82;99.65039;934.4039;;;;
2023/08/31 05:03:20;;;;;;;2.7;1.6;;;;;;;11.93;99.6084;934.4643;;;;
2023/08/31 05:05:45;;;;;;;2.2;2;;;;;;;12.08;98.83984;934.4899;;;;
2023/08/31 05:08:12;;;;;;;2.1;1.8;;;;;;;12.07;98.80273;934.5656;;;;
2023/08/31 05:10:37;;;;;;;2.4;1.9;;;;;;;12.13;98.81738;934.6309;;;;
2023/08/31 05:13:08;;;;;;;2.8;2.3;;;;;;;12.21;98.41211;934.6067;;;;
2023/08/31 05:17:09;;;;;;;2.3;2.1;;;;;;;12.27;97.79395;934.6404;;;;
2023/08/31 05:19:37;;;;;;;1.8;1.6;;;;;;;12.14;98.17773;934.7307;;;;
2023/08/31 05:22:02;;;;;;;2.4;1.7;;;;;;;12.11;98.44727;934.6477;;;;
2023/08/31 05:24:27;;;;;;;2;1.8;;;;;;;12.03;98.80664;934.7101;;;;
2023/08/31 05:26:52;;;;;;;2.3;1.8;;;;;;;11.96;99.00781;934.7914;;;;
2023/08/31 05:29:18;;;;;;;1.7;1.6;;;;;;;11.87;98.79395;934.8386;;;;
2023/08/31 05:31:46;;;;;;;2.2;1.6;;;;;;;11.94;99.23242;934.9055;;;;
2023/08/31 05:34:11;;;;;;;2.2;1.8;;;;;;;12.01;99.94824;934.923;;;;
2023/08/31 05:36:38;;;;;;;1.9;1.7;;;;;;;12.21;98.82227;934.9883;;;;
2023/08/31 05:39:04;;;;;;;2.7;1.6;;;;;;;12.27;97.58789;934.9892;;;;
2023/08/31 05:41:28;;;;;;;4.1;1.8;;;;;;;12.33;97.29199;935.0043;;;;
2023/08/31 05:43:54;;;;;;;2.6;1.9;;;;;;;12.45;97.45605;935.0082;;;;
2023/08/31 05:46:20;;;;;;;1.6;1.5;;;;;;;12.57;96.83008;935.0189;;;;
2023/08/31 05:48:45;;;;;;;2.5;1.8;;;;;;;12.59;96.06641;935.062;;;;
2023/08/31 05:51:12;;;;;;;3.6;2.6;;;;;;;12.21;96.17676;935.0737;;;;
2023/08/31 05:53:37;;;;;;;5.5;3;;;;;;;12.27;97.20898;935.1401;;;;
2023/08/31 05:56:06;;;;;;;6.3;2.8;;;;;;;12.41;97.01172;935.1677;;;;
2023/08/31 05:58:28;;;;;;;4.1;2.4;;;;;;;12.45;97.00879;935.1711;;;;
2023/08/31 06:00:54;;;;;;;3.8;2.4;;;;;;;12.6;96.48047;935.1809;;;;
2023/08/31 06:03:20;;;;;;;3.1;1.9;;;;;;;12.71;95.7002;935.1178;;;;
2023/08/31 06:05:46;;;;;;;3.7;2.4;;;;;;;12.77;95.52051;935.1967;;;;
2023/08/31 06:08:11;;;;;;;2.5;2;;;;;;;12.84;95.15723;935.1239;;;;
2023/08/31 06:10:38;;;;;;;2.4;1.8;;;;;;;12.69;95.7666;935.0851;;;;
2023/08/31 06:13:03;;;;;;;2.8;1.6;;;;;;;12.53;96.61426;935.0383;;;;
2023/08/31 06:15:28;;;;;;;3.7;1.9;;;;;;;12.49;97.54688;935.1838;;;;
2023/08/31 06:17:53;;;;;;;2.1;1.9;;;;;;;12.27;98;935.2383;;;;
2023/08/31 06:20:22;;;;;;;4.3;2.1;;;;;;;12.51;97.89453;935.2444;;;;
2023/08/31 06:22:46;;;;;;;3;2.1;;;;;;;12.76;97.06543;935.2862;;;;
2023/08/31 06:25:15;;;;;;;2.9;2.3;;;;;;;12.95;95.98535;935.2872;;;;
2023/08/31 06:27:37;;;;;;;2.5;2.1;;;;;;;12.9;95.97266;935.2651;;;;
2023/08/31 06:30:03;;;;;;;2.6;2.1;;;;;;;12.94;96.00586;935.3472;;;;
2023/08/31 06:32:28;;;;;;;4.9;2.2;;;;;;;13.11;95.15723;935.2108;;;;
2023/08/31 06:34:53;;;;;;;2.9;2;;;;;;;13.3;94.93457;935.1736;;;;
2023/08/31 06:37:18;;;;;;;3.5;1.9;;;;;;;13.44;94.24219;935.1666;;;;
2023/08/31 06:39:43;;;;;;;1.9;1.7;;;;;;;13.68;93.76367;935.1923;;;;
2023/08/31 06:42:08;;;;;;;2.3;1.5;;;;;;;13.86;92.75586;935.2161;;;;
2023/08/31 06:44:33;;;;;;;1.8;1.6;;;;;;;14.11;91.75977;935.1742;;;;
2023/08/31 06:46:58;;;;;;;3.1;1.6;;;;;;;14.27;88.83496;935.1833;;;;
2023/08/31 06:49:24;;;;;;;1.6;1.5;;;;;;;14.36;88.28906;935.241;;;;
2023/08/31 06:51:49;;;;;;;2.4;1.8;;;;;;;14.36;89.31348;935.2289;;;;
2023/08/31 06:54:14;;;;;;;2.2;1.6;;;;;;;14.36;87.74902;935.301;;;;
2023/08/31 06:56:39;;;;;;;1.8;1.5;;;;;;;14.34;87.31738;935.3148;;;;
2023/08/31 06:59:08;;;;;;;1.4;1.3;;;;;;;14.36;86.13477;935.3066;;;;
2023/08/31 07:01:34;;;;;;;1.8;1.6;;;;;;;14.05;89.88379;935.3677;;;;
2023/08/31 07:03:58;;;;;;;1.9;1.6;;;;;;;14.15;89.51465;935.4308;;;;
2023/08/31 07:06:23;;;;;;;1.8;1.5;;;;;;;14.35;88.55371;935.4164;;;;
2023/08/31 07:08:50;;;;;;;1.5;1.4;;;;;;;14.38;88.65137;935.368;;;;
2023/08/31 07:11:16;;;;;;;1.9;1.6;;;;;;;14.54;88.01563;935.496;;;;
2023/08/31 07:13:42;;;;;;;2.1;1.5;;;;;;;14.61;87.63867;935.5017;;;;
2023/08/31 07:16:07;;;;;;;2.9;2.2;;;;;;;14.4;88.87402;935.5386;;;;
2023/08/31 07:18:34;;;;;;;5.1;2;;;;;;;13.98;91.61816;935.6017;;;;
2023/08/31 07:20:59;;;;;;;4.1;2;;;;;;;13.82;92.13867;935.5941;;;;
2023/08/31 07:23:24;;;;;;;2.6;2.1;;;;;;;13.75;92.83594;935.6631;;;;
2023/08/31 07:25:49;;;;;;;5.6;2.2;;;;;;;13.67;94.93457;935.783;;;;
2023/08/31 07:28:16;;;;;;;5.7;2.1;;;;;;;13.82;93.76074;935.8318;;;;
2023/08/31 07:30:41;;;;;;;3.4;2.1;;;;;;;13.8;93.5957;935.882;;;;
2023/08/31 07:33:07;;;;;;;4.4;2.1;;;;;;;13.83;92.13086;935.915;;;;
2023/08/31 07:35:32;;;;;;;2.6;1.7;;;;;;;13.94;92.38184;935.9174;;;;
2023/08/31 07:38:00;;;;;;;4.2;2.2;;;;;;;14.1;92.08203;936.015;;;;
2023/08/31 07:40:25;;;;;;;3.3;2;;;;;;;14.12;91.81152;936.082;;;;
2023/08/31 07:42:51;;;;;;;2.5;1.8;;;;;;;14.04;90.86035;936.0443;;;;
2023/08/31 07:45:16;;;;;;;3;2.3;;;;;;;13.98;92.8291;936.0059;;;;
2023/08/31 07:47:41;;;;;;;2.7;1.8;;;;;;;14.16;93.34863;935.9808;;;;
2023/08/31 07:50:06;;;;;;;2.8;1.9;;;;;;;14.27;91.33398;935.9394;;;;
2023/08/31 07:52:32;;;;;;;2.5;1.7;;;;;;;14.54;91.78418;935.8895;;;;
2023/08/31 07:54:57;;;;;;;3.7;2.2;;;;;;;14.77;90.22852;935.8258;;;;
2023/08/31 07:57:26;;;;;;;7.2;4.1;;;;;;;14.93;88.10547;935.9165;;;;
2023/08/31 07:59:50;;;;;;;2;1.6;;;;;;;15.2;86.40625;935.8622;;;;
2023/08/31 08:02:17;;;;;;;1.9;1.6;;;;;;;16.75;82.125;935.8409;;;;
2023/08/31 08:04:42;;;;;;;2.4;1.3;;;;;;;17.93;75.58789;935.7463;;;;
2023/08/31 08:07:08;;;;;;;1.3;1.2;;;;;;;18.04;71.03125;935.7553;;;;
2023/08/31 08:09:33;;;;;;;3.8;1.4;;;;;;;17.8;70.82813;935.7361;;;;
2023/08/31 08:11:58;;;;;;;1.9;1.4;;;;;;;17.86;72.59277;935.8073;;;;
2023/08/31 08:14:23;;;;;;;2.6;1.4;;;;;;;17.91;71.53223;935.796;;;;
2023/08/31 08:16:48;;;;;;;1.7;1.3;;;;;;;17.78;71.88281;935.734;;;;
2023/08/31 08:19:14;;;;;;;3.1;1.6;;;;;;;17.75;70.30957;935.7203;;;;
2023/08/31 08:21:40;;;;;;;1.4;1.3;;;;;;;17.89;71.92383;935.6794;;;;
2023/08/31 08:24:05;;;;;;;2;1.7;;;;;;;17.95;72.89648;935.7612;;;;
2023/08/31 08:26:33;;;;;;;1.8;1.4;;;;;;;17.63;72.64844;935.8409;;;;
2023/08/31 08:28:58;;;;;;;2.6;1.8;;;;;;;17.55;73.97949;935.7665;;;;
2023/08/31 08:31:24;;;;;;;5.1;3.1;;;;;;;17.58;73.60156;935.7838;;;;
2023/08/31 08:33:49;;;;;;;3.2;1.6;;;;;;;17.34;74.94141;935.8359;;;;
2023/08/31 08:36:16;;;;;;;2.8;1.7;;;;;;;17;74.86035;935.752;;;;
2023/08/31 08:38:40;;;;;;;2.6;1.6;;;;;;;16.96;74.88867;935.8372;;;;
2023/08/31 08:41:05;;;;;;;3.4;1.7;;;;;;;16.96;76.04785;935.8661;;;;
2023/08/31 08:43:30;;;;;;;2.4;1.9;;;;;;;16.94;77.14551;936.0001;;;;
2023/08/31 08:45:56;;;;;;;2.8;1.8;;;;;;;16.93;77.57031;936.0019;;;;
2023/08/31 08:48:21;;;;;;;2.1;1.7;;;;;;;16.84;76.82617;936.0471;;;;
2023/08/31 08:50:46;;;;;;;2.5;1.7;;;;;;;16.61;77.95508;936.0397;;;;
2023/08/31 08:53:13;;;;;;;2;1.7;;;;;;;16.49;77.58691;936.1221;;;;
2023/08/31 08:55:37;;;;;;;1.7;1.6;;;;;;;16.39;78.69043;936.1525;;;;
2023/08/31 08:58:04;;;;;;;2.1;1.6;;;;;;;16.49;79.47363;936.1881;;;;
2023/08/31 09:00:29;;;;;;;2.7;1.9;;;;;;;16.59;79.02832;936.2539;;;;
2023/08/31 09:02:54;;;;;;;3.3;1.6;;;;;;;16.61;77.97754;936.2689;;;;
2023/08/31 09:05:20;;;;;;;2.5;1.7;;;;;;;16.43;76.99805;936.193;;;;
2023/08/31 09:07:45;;;;;;;2;1.7;;;;;;;16.31;77.38086;936.2654;;;;
2023/08/31 09:10:13;;;;;;;2.1;1.9;;;;;;;16.26;79.67383;936.3483;;;;
2023/08/31 09:12:39;;;;;;;3.5;1.6;;;;;;;16.16;79.32031;936.462;;;;
2023/08/31 09:15:04;;;;;;;2.1;1.7;;;;;;;16.21;80.27734;936.4275;;;;
2023/08/31 09:17:28;;;;;;;2.2;1.7;;;;;;;16.32;81.33789;936.4614;;;;
2023/08/31 09:19:53;;;;;;;1.9;1.6;;;;;;;16.38;80.62109;936.45;;;;
2023/08/31 09:22:20;;;;;;;2.7;2;;;;;;;16.52;82.47656;936.337;;;;
2023/08/31 09:24:45;;;;;;;1.6;1.5;;;;;;;16.59;80.16309;936.384;;;;
2023/08/31 09:27:11;;;;;;;2.2;1.5;;;;;;;16.68;79.90137;936.384;;;;
2023/08/31 09:29:36;;;;;;;2.1;1.7;;;;;;;16.9;79.9873;936.3427;;;;
2023/08/31 09:32:03;;;;;;;1.5;1.4;;;;;;;17.34;77.42383;936.2794;;;;
2023/08/31 09:34:28;;;;;;;2.4;1.6;;;;;;;18.01;75.05566;936.128;;;;
2023/08/31 09:36:54;;;;;;;1.6;1.5;;;;;;;18.5;71.72168;936.185;;;;
2023/08/31 09:39:19;;;;;;;1.9;1.4;;;;;;;18.75;69.05078;936.1261;;;;
2023/08/31 09:41:44;;;;;;;1.7;1.4;;;;;;;18.82;67.95508;936.1833;;;;
2023/08/31 09:44:11;;;;;;;2.4;1.4;;;;;;;18.82;66.39551;936.1163;;;;
2023/08/31 09:46:36;;;;;;;2;1.6;;;;;;;19.11;65.81055;936.178;;;;
2023/08/31 09:49:01;;;;;;;1.7;1.5;;;;;;;19.14;64.9082;936.181;;;;
2023/08/31 09:51:29;;;;;;;2.5;1.5;;;;;;;19.14;65.8623;936.2585;;;;
2023/08/31 09:53:52;;;;;;;1.8;1.5;;;;;;;19.13;64.30273;936.2653;;;;
2023/08/31 09:56:18;;;;;;;1.8;1.7;;;;;;;18.88;65.37109;936.2417;;;;
2023/08/31 09:58:44;;;;;;;2.6;1.7;;;;;;;18.28;65.31641;936.1819;;;;
2023/08/31 10:01:09;;;;;;;1.8;1.5;;;;;;;18.68;67.17871;936.2313;;;;
2023/08/31 10:03:35;;;;;;;2.4;1.7;;;;;;;18.51;67.36133;936.1816;;;;
2023/08/31 10:06:02;;;;;;;2;1.7;;;;;;;18.25;69.4375;936.2916;;;;
2023/08/31 10:08:28;;;;;;;1.8;1.7;;;;;;;18.45;68.45801;936.3047;;;;
2023/08/31 10:10:53;;;;;;;2.1;1.6;;;;;;;18.72;68.19629;936.2834;;;;
2023/08/31 10:13:18;;;;;;;1.8;1.5;;;;;;;18.97;66.07031;936.195;;;;
2023/08/31 10:15:46;;;;;;;2.9;1.9;;;;;;;19.04;66.08105;936.2467;;;;
2023/08/31 10:18:11;;;;;;;2.9;1.6;;;;;;;19.32;68.81348;936.2614;;;;
2023/08/31 10:20:37;;;;;;;2.1;1.7;;;;;;;18.85;66.04102;936.3256;;;;
2023/08/31 10:23:03;;;;;;;2.2;1.6;;;;;;;18.77;68.99707;936.2982;;;;
2023/08/31 10:25:28;;;;;;;2.4;1.8;;;;;;;19.02;66.48535;936.1827;;;;
2023/08/31 10:27:52;;;;;;;2.1;1.8;;;;;;;19.29;64.8252;936.2008;;;;
2023/08/31 10:30:17;;;;;;;3.1;2.3;;;;;;;19.57;63.18848;936.1395;;;;
2023/08/31 10:32:46;;;;;;;2.2;1.9;;;;;;;19.81;62.56836;936.0736;;;;
2023/08/31 10:35:10;;;;;;;2.5;1.9;;;;;;;20.44;60.82422;936.0963;;;;
2023/08/31 10:37:37;;;;;;;2.2;1.5;;;;;;;20.78;57.84473;936.184;;;;
2023/08/31 10:40:03;;;;;;;1.9;1.7;;;;;;;20.81;57.87109;936.1661;;;;
2023/08/31 10:42:28;;;;;;;2.5;1.7;;;;;;;20.79;61.50391;936.1936;;;;
2023/08/31 10:44:53;;;;;;;3.1;2.2;;;;;;;20.74;58.77344;936.1321;;;;
2023/08/31 10:47:18;;;;;;;2.3;2;;;;;;;20.44;60.52051;936.1019;;;;
2023/08/31 10:49:43;;;;;;;2.1;1.8;;;;;;;20.26;61.45508;936.081;;;;
2023/08/31 10:52:08;;;;;;;2.3;1.9;;;;;;;19.72;64.2002;936.0781;;;;
2023/08/31 10:54:35;;;;;;;2;1.8;;;;;;;19.45;65.97852;936.0641;;;;
2023/08/31 10:57:00;;;;;;;2.8;1.9;;;;;;;19.43;67.35059;936.0792;;;;
2023/08/31 10:59:26;;;;;;;1.9;1.7;;;;;;;19.5;68.80664;936.0103;;;;
2023/08/31 11:01:51;;;;;;;1.9;1.7;;;;;;;19.45;67.08594;936.0497;;;;
2023/08/31 11:04:16;;;;;;;1.7;1.6;;;;;;;20.16;65.50195;936.0103;;;;
2023/08/31 11:06:41;;;;;;;2.2;1.9;;;;;;;20.8;62.10156;935.999;;;;
2023/08/31 11:09:08;;;;;;;2.4;2;;;;;;;21.63;57.41797;935.9714;;;;
2023/08/31 11:11:33;;;;;;;1.9;1.7;;;;;;;22.48;55.53223;935.925;;;;
2023/08/31 11:13:59;;;;;;;2;1.8;;;;;;;23.25;52.67773;935.9244;;;;
2023/08/31 11:16:24;;;;;;;1.9;1.6;;;;;;;24.04;49.69922;935.9089;;;;
2023/08/31 11:18:49;;;;;;;2.7;1.5;;;;;;;24.45;50.50977;935.8806;;;;
2023/08/31 11:21:15;;;;;;;1.7;1.6;;;;;;;23.55;51.7959;935.8755;;;;
2023/08/31 11:23:40;;;;;;;1.7;1.6;;;;;;;22.22;56.12207;935.8972;;;;
2023/08/31 11:26:06;;;;;;;2.2;1.7;;;;;;;21.92;57.87598;935.7949;;;;
2023/08/31 11:28:31;;;;;;;1.8;1.7;;;;;;;21.62;58.27051;935.82;;;;
2023/08/31 11:30:56;;;;;;;2.2;1.9;;;;;;;21.35;60.93945;935.8756;;;;
2023/08/31 11:33:21;;;;;;;2.1;1.6;;;;;;;22.78;56.06348;935.7935;;;;
2023/08/31 11:35:46;;;;;;;2.4;1.9;;;;;;;23.05;55.74512;935.7966;;;;
2023/08/31 11:38:12;;;;;;;1.6;1.5;;;;;;;22.11;57.80664;935.8141;;;;
2023/08/31 11:40:37;;;;;;;2.9;1.6;;;;;;;21.65;59.87695;935.8809;;;;
2023/08/31 11:43:03;;;;;;;1.7;1.6;;;;;;;22.48;58.21875;935.8655;;;;
2023/08/31 11:45:27;;;;;;;1.9;1.6;;;;;;;25.13;51;935.8859;;;;
2023/08/31 11:47:53;;;;;;;2.1;1.6;;;;;;;25.27;49.1377;935.8335;;;;
2023/08/31 11:50:19;;;;;;;2.7;1.5;;;;;;;24.51;50.97656;935.8069;;;;
2023/08/31 11:52:48;;;;;;;1.8;1.7;;;;;;;23.22;54.79004;935.8131;;;;
2023/08/31 11:55:13;;;;;;;2.2;1.8;;;;;;;24.35;53.65527;935.7927;;;;
2023/08/31 11:57:40;;;;;;;2.5;1.6;;;;;;;25.5;50.77148;935.8429;;;;
2023/08/31 12:00:05;;;;;;;3.3;1.5;;;;;;;26.03;47.83887;935.8224;;;;
2023/08/31 12:02:32;;;;;;;1.9;1.7;;;;;;;23.96;52.79785;935.7836;;;;
2023/08/31 12:04:57;;;;;;;2.1;1.7;;;;;;;25;49.71094;935.702;;;;
2023/08/31 12:07:26;;;;;;;1.7;1.6;;;;;;;25.13;48.68652;935.7317;;;;
2023/08/31 12:09:51;;;;;;;1.5;1.4;;;;;;;26.27;45.7334;935.7388;;;;
2023/08/31 12:12:17;;;;;;;2.8;1.6;;;;;;;25.97;46.7207;935.7422;;;;
2023/08/31 12:14:41;;;;;;;2.3;1.5;;;;;;;26.05;49.11914;935.7606;;;;
2023/08/31 12:17:06;;;;;;;1.8;1.5;;;;;;;24.65;49.00098;935.7709;;;;
2023/08/31 12:19:32;;;;;;;2.5;1.6;;;;;;;24.38;51.69336;935.6891;;;;
2023/08/31 12:21:59;;;;;;;2.9;1.6;;;;;;;26.4;48.49414;935.7369;;;;
2023/08/31 12:24:24;;;;;;;1.8;1.4;;;;;;;27.09;46.57715;935.7434;;;;
2023/08/31 12:26:49;;;;;;;1.6;1.5;;;;;;;25.83;48.5625;935.7617;;;;
2023/08/31 12:29:15;;;;;;;2.2;1.4;;;;;;;26.38;48.90625;935.772;;;;
2023/08/31 12:31:40;;;;;;;1.5;1.4;;;;;;;27.55;42.87402;935.8058;;;;
2023/08/31 12:34:06;;;;;;;1.6;1.5;;;;;;;27.11;45.03809;935.7606;;;;
2023/08/31 12:36:31;;;;;;;2.2;1.4;;;;;;;25.67;50.21094;935.7388;;;;
2023/08/31 12:39:01;;;;;;;2.3;1.6;;;;;;;24.24;52.47754;935.7463;;;;
2023/08/31 12:41:22;;;;;;;1.6;1.5;;;;;;;24.37;51.83203;935.7572;;;;
2023/08/31 12:43:52;;;;;;;1.9;1.4;;;;;;;24.51;51.82715;935.7979;;;;
2023/08/31 12:46:17;;;;;;;3.2;1.5;;;;;;;24.28;53.94238;935.7206;;;;
2023/08/31 12:48:42;;;;;;;1.7;1.6;;;;;;;24;52.91992;935.6683;;;;
2023/08/31 12:51:07;;;;;;;2.5;1.5;;;;;;;23.24;55.01563;935.7413;;;;
2023/08/31 12:53:32;;;;;;;2.4;1.5;;;;;;;22.55;56.19824;935.5754;;;;
2023/08/31 12:55:57;;;;;;;2.4;1.3;;;;;;;21.74;58.83691;935.6675;;;;
2023/08/31 12:58:23;;;;;;;2.1;1.6;;;;;;;23.28;55.80859;935.6807;;;;
2023/08/31 13:00:49;;;;;;;1.5;1.2;;;;;;;24.45;51.39258;935.644;;;;
2023/08/31 13:03:13;;;;;;;1.7;1.6;;;;;;;23.25;54.71094;935.5836;;;;
2023/08/31 13:05:38;;;;;;;1.9;1.6;;;;;;;22.29;59.44922;935.6555;;;;
2023/08/31 13:08:04;;;;;;;2;1.6;;;;;;;22.68;54.50195;935.6522;;;;
2023/08/31 13:10:30;;;;;;;1.6;1.4;;;;;;;22.7;54.16309;935.6539;;;;
2023/08/31 13:12:56;;;;;;;3.8;1.8;;;;;;;21.36;60.12012;935.6908;;;;
2023/08/31 13:15:24;;;;;;;4.4;1.8;;;;;;;20.84;61.44043;935.7615;;;;
2023/08/31 13:17:49;;;;;;;2.4;1.7;;;;;;;20.68;60.22559;935.7635;;;;
2023/08/31 13:20:17;;;;;;;2;1.5;;;;;;;20.37;62.13379;935.8455;;;;
2023/08/31 13:22:42;;;;;;;2.5;1.6;;;;;;;20.51;60.13379;935.7986;;;;
2023/08/31 13:25:12;;;;;;;1.6;1.5;;;;;;;19.9;62.79297;935.7812;;;;
2023/08/31 13:27:37;;;;;;;1.9;1.5;;;;;;;19.41;66.13574;935.7234;;;;
2023/08/31 13:30:05;;;;;;;2;1.8;;;;;;;19.55;69.12891;935.6473;;;;
2023/08/31 13:32:27;;;;;;;2.4;1.9;;;;;;;19.84;66.50488;935.6561;;;;
2023/08/31 13:34:53;;;;;;;1.8;1.7;;;;;;;20.14;65.91895;935.7328;;;;
2023/08/31 13:37:17;;;;;;;2;1.8;;;;;;;20.14;65.02051;935.7402;;;;
2023/08/31 13:39:42;;;;;;;2.1;1.7;;;;;;;20.57;63.83398;935.7383;;;;
2023/08/31 13:42:07;;;;;;;2.7;1.7;;;;;;;20.93;62.03906;935.675;;;;
2023/08/31 13:44:32;;;;;;;2.5;1.5;;;;;;;21.18;59.65137;935.7192;;;;
2023/08/31 13:46:57;;;;;;;2.6;1.5;;;;;;;21.25;59.66113;935.6898;;;;
2023/08/31 13:49:22;;;;;;;2.4;1.7;;;;;;;21.14;61.79785;935.6933;;;;
2023/08/31 13:51:47;;;;;;;1.9;1.3;;;;;;;21.37;59.25684;935.6303;;;;
2023/08/31 13:54:13;;;;;;;1.9;1.6;;;;;;;21.63;59.4209;935.5889;;;;
2023/08/31 13:56:38;;;;;;;3.1;1.5;;;;;;;21.56;59.9248;935.5849;;;;
2023/08/31 13:59:03;;;;;;;2.8;1.6;;;;;;;20.76;64.07227;935.5964;;;;
2023/08/31 14:01:30;;;;;;;2.1;1.3;;;;;;;20.97;59.96289;935.6099;;;;
2023/08/31 14:03:55;;;;;;;1.7;1.6;;;;;;;21.33;58.92188;935.5631;;;;
2023/08/31 14:06:20;;;;;;;1.6;1.5;;;;;;;21.52;57.42578;935.5878;;;;
2023/08/31 14:08:46;;;;;;;2.6;1.7;;;;;;;21.56;57.24316;935.4787;;;;
2023/08/31 14:11:12;;;;;;;1.6;1.4;;;;;;;21.58;59.08398;935.517;;;;
2023/08/31 14:13:37;;;;;;;1.6;1.4;;;;;;;21.84;55.7334;935.4177;;;;
2023/08/31 14:16:04;;;;;;;2.4;1.7;;;;;;;21.8;57.52148;935.4902;;;;
2023/08/31 14:18:31;;;;;;;1.6;1.4;;;;;;;21.48;55.79297;935.4551;;;;
2023/08/31 14:20:56;;;;;;;1.6;1.5;;;;;;;21.52;55.89258;935.5334;;;;
2023/08/31 14:23:21;;;;;;;3.2;1.4;;;;;;;20.81;60.93359;935.6337;;;;